Time;durP1;ratioP1;P1;durP2;ratioP2;P2;SDS_P1;SDS_P2;PMS_P1;PMS_P2;Temp;Humidity;BMP_temperature;BMP_pressure;BME280_temperature;BME280_humidity;BME280_pressure;Samples;Min_cycle;Max_cycle;Signal;HPM_P1;HPM_P2
2022/05/14 00:01:30;;;;;;;;;2.00;2.00;;;;;;;;4975364;28;45461;-74
2022/05/14 00:03:56;;;;;;;;;3.00;1.67;;;;;;;;4975049;28;45739;-76
2022/05/14 00:06:23;;;;;;;;;2.00;1.00;;;;;;;;4947989;28;45416;-74
2022/05/14 00:08:48;;;;;;;;;1.67;1.67;;;;;;;;4955447;28;45697;-73
2022/05/14 00:13:58;;;;;;;;;1.67;1.00;;;;;;;;4974933;28;45594;-73
2022/05/14 00:16:24;;;;;;;;;2.00;2.00;;;;;;;;4959166;28;45489;-72
2022/05/14 00:18:51;;;;;;;;;3.00;3.00;;;;;;;;4979040;28;45470;-73
2022/05/14 00:21:19;;;;;;;;;3.00;1.33;;;;;;;;4993931;28;46058;-74
2022/05/14 00:23:45;;;;;;;;;3.00;2.00;;;;;;;;4993906;28;45731;-74
2022/05/14 00:26:11;;;;;;;;;2.33;2.33;;;;;;;;4979658;28;45384;-73
2022/05/14 00:28:36;;;;;;;;;2.33;2.33;;;;;;;;4978566;28;45684;-73
2022/05/14 00:31:01;;;;;;;;;1.33;1.33;;;;;;;;4966963;28;45732;-73
2022/05/14 00:33:27;;;;;;;;;1.67;1.67;;;;;;;;4957001;28;45688;-73
2022/05/14 00:35:52;;;;;;;;;2.00;2.00;;;;;;;;4974764;28;45647;-74
2022/05/14 00:38:17;;;;;;;;;1.00;1.00;;;;;;;;4974883;28;45738;-73
2022/05/14 00:40:43;;;;;;;;;1.33;1.00;;;;;;;;4974625;28;45917;-73
2022/05/14 00:43:09;;;;;;;;;4.00;2.00;;;;;;;;4970108;28;45471;-73
2022/05/14 00:45:37;;;;;;;;;2.67;1.67;;;;;;;;4974781;28;45377;-72
2022/05/14 00:48:03;;;;;;;;;3.33;2.33;;;;;;;;4973856;28;45803;-73
2022/05/14 00:50:40;;;;;;;;;2.67;2.67;;;;;;;;4973955;28;45666;-72
2022/05/14 00:53:11;;;;;;;;;1.33;1.00;;;;;;;;4974043;28;45397;-73
2022/05/14 00:55:38;;;;;;;;;2.67;2.67;;;;;;;;4972972;28;45491;-73
2022/05/14 00:58:04;;;;;;;;;2.00;1.33;;;;;;;;4973306;28;45569;-73
2022/05/14 01:00:30;;;;;;;;;2.33;2.00;;;;;;;;4968904;28;45784;-73
2022/05/14 01:02:55;;;;;;;;;3.33;3.00;;;;;;;;4953808;28;45740;-73
2022/05/14 01:05:21;;;;;;;;;3.00;2.33;;;;;;;;4954346;28;45480;-75
2022/05/14 01:07:49;;;;;;;;;3.67;2.00;;;;;;;;4954508;28;45302;-76
2022/05/14 01:10:16;;;;;;;;;1.00;1.00;;;;;;;;4969422;28;45680;-76
2022/05/14 01:12:46;;;;;;;;;2.00;2.00;;;;;;;;4974488;28;45407;-77
2022/05/14 01:15:22;;;;;;;;;2.33;2.33;;;;;;;;4973152;28;45451;-76
2022/05/14 01:17:48;;;;;;;;;4.00;2.00;;;;;;;;4973613;28;45526;-73
2022/05/14 01:20:14;;;;;;;;;3.00;3.00;;;;;;;;4973521;28;46177;-74
2022/05/14 01:22:49;;;;;;;;;3.67;3.67;;;;;;;;4974031;28;45431;-74
2022/05/14 01:28:04;;;;;;;;;2.33;2.33;;;;;;;;4954721;28;45440;-74
2022/05/14 01:30:30;;;;;;;;;5.00;4.00;;;;;;;;4954369;28;45840;-73
2022/05/14 01:33:05;;;;;;;;;3.00;3.00;;;;;;;;4954324;28;45660;-73
2022/05/14 01:35:31;;;;;;;;;2.00;2.00;;;;;;;;4973537;28;45549;-74
2022/05/14 01:37:57;;;;;;;;;3.00;3.00;;;;;;;;4962892;28;45472;-73
2022/05/14 01:40:22;;;;;;;;;4.00;4.00;;;;;;;;4954003;28;45353;-72
2022/05/14 01:42:47;;;;;;;;;7.67;4.00;;;;;;;;4953021;28;45773;-74
2022/05/14 01:45:13;;;;;;;;;5.00;3.00;;;;;;;;4954716;28;45876;-72
2022/05/14 01:47:38;;;;;;;;;3.33;3.33;;;;;;;;4954057;28;45420;-74
2022/05/14 01:50:03;;;;;;;;;4.00;3.00;;;;;;;;4953842;28;45940;-72
2022/05/14 01:52:29;;;;;;;;;4.00;4.00;;;;;;;;4954135;28;45814;-72
2022/05/14 01:54:54;;;;;;;;;3.67;2.67;;;;;;;;4954583;28;45423;-73
2022/05/14 01:57:19;;;;;;;;;8.67;5.00;;;;;;;;4971133;28;45507;-77
2022/05/14 01:59:44;;;;;;;;;5.00;4.00;;;;;;;;4973945;28;45381;-77
2022/05/14 02:02:10;;;;;;;;;5.00;5.00;;;;;;;;4956372;28;45735;-77
2022/05/14 02:04:35;;;;;;;;;4.00;4.00;;;;;;;;4973411;28;45695;-73
2022/05/14 02:07:01;;;;;;;;;7.00;4.33;;;;;;;;4973230;28;45775;-73
2022/05/14 02:09:27;;;;;;;;;3.67;3.33;;;;;;;;4973069;28;45337;-74
2022/05/14 02:11:52;;;;;;;;;4.00;3.67;;;;;;;;4966735;28;45346;-77
2022/05/14 02:14:17;;;;;;;;;2.00;2.00;;;;;;;;4973540;28;45314;-77
2022/05/14 02:16:43;;;;;;;;;2.00;1.00;;;;;;;;4973370;28;45503;-76
2022/05/14 02:19:08;;;;;;;;;5.00;4.33;;;;;;;;4954715;28;46698;-76
2022/05/14 02:21:34;;;;;;;;;3.67;3.67;;;;;;;;4975787;28;45357;-76
2022/05/14 02:24:00;;;;;;;;;4.00;4.00;;;;;;;;4976774;28;45424;-76
2022/05/14 02:26:25;;;;;;;;;5.33;5.33;;;;;;;;4959023;28;45469;-76
2022/05/14 02:28:51;;;;;;;;;5.33;5.33;;;;;;;;4975978;28;45808;-73
2022/05/14 02:31:16;;;;;;;;;4.67;3.67;;;;;;;;4976369;28;45787;-72
2022/05/14 02:33:42;;;;;;;;;5.33;5.33;;;;;;;;4966731;28;45711;-75
2022/05/14 02:36:07;;;;;;;;;6.33;5.00;;;;;;;;4957039;28;45638;-74
2022/05/14 02:38:33;;;;;;;;;8.00;5.33;;;;;;;;4971807;28;46658;-73
2022/05/14 02:40:58;;;;;;;;;8.33;7.00;;;;;;;;4976146;28;45696;-72
2022/05/14 02:43:24;;;;;;;;;8.00;4.67;;;;;;;;4975960;28;45470;-73
2022/05/14 02:45:49;;;;;;;;;6.67;6.33;;;;;;;;4975648;28;45526;-73
2022/05/14 02:48:15;;;;;;;;;5.67;5.67;;;;;;;;4968383;28;46304;-74
2022/05/14 02:50:40;;;;;;;;;4.00;4.00;;;;;;;;4956818;28;45649;-73
2022/05/14 02:53:06;;;;;;;;;5.67;5.33;;;;;;;;4957063;28;45369;-73
2022/05/14 02:55:31;;;;;;;;;7.67;5.67;;;;;;;;4956564;28;45344;-74
2022/05/14 02:57:56;;;;;;;;;5.33;5.00;;;;;;;;4956620;28;45687;-72
2022/05/14 03:00:22;;;;;;;;;11.33;6.33;;;;;;;;4956682;28;45526;-74
2022/05/14 03:02:48;;;;;;;;;4.67;2.00;;;;;;;;4956444;28;45366;-73
2022/05/14 03:05:14;;;;;;;;;5.00;5.00;;;;;;;;4940172;28;46032;-72
2022/05/14 03:07:40;;;;;;;;;4.00;4.00;;;;;;;;4968110;28;46348;-76
2022/05/14 03:10:06;;;;;;;;;9.33;8.33;;;;;;;;4944026;28;45603;-80
2022/05/14 03:12:32;;;;;;;;;7.33;6.33;;;;;;;;4942913;28;44782;-77
2022/05/14 03:14:57;;;;;;;;;9.33;7.33;;;;;;;;4958122;28;45460;-79
2022/05/14 03:17:23;;;;;;;;;7.67;6.33;;;;;;;;4958370;28;45408;-80
2022/05/14 03:19:49;;;;;;;;;5.33;5.33;;;;;;;;4965474;28;45405;-74
2022/05/14 03:22:15;;;;;;;;;5.33;5.33;;;;;;;;4957566;28;45665;-75
2022/05/14 03:24:40;;;;;;;;;7.00;5.33;;;;;;;;4956452;28;45710;-75
2022/05/14 03:27:06;;;;;;;;;6.67;6.33;;;;;;;;4956550;28;45703;-74
2022/05/14 03:29:32;;;;;;;;;10.00;7.00;;;;;;;;4956382;28;45691;-74
2022/05/14 03:31:57;;;;;;;;;5.00;5.00;;;;;;;;4955517;28;45764;-73
2022/05/14 03:34:23;;;;;;;;;7.67;6.00;;;;;;;;4956601;28;45352;-74
2022/05/14 03:36:49;;;;;;;;;6.33;6.33;;;;;;;;4963310;28;46093;-78
2022/05/14 03:39:15;;;;;;;;;7.00;5.00;;;;;;;;4975730;28;45394;-75
2022/05/14 03:41:41;;;;;;;;;6.33;6.33;;;;;;;;4975544;28;45806;-72
2022/05/14 03:44:06;;;;;;;;;5.67;5.67;;;;;;;;4975290;28;45645;-73
2022/05/14 03:46:31;;;;;;;;;10.67;7.67;;;;;;;;4974890;28;45739;-75
2022/05/14 03:48:57;;;;;;;;;5.33;5.33;;;;;;;;4975034;28;45698;-74
2022/05/14 03:51:22;;;;;;;;;8.67;7.67;;;;;;;;4962577;28;45354;-74
2022/05/14 03:53:47;;;;;;;;;6.00;6.00;;;;;;;;4954743;28;45638;-73
2022/05/14 03:56:13;;;;;;;;;8.33;5.67;;;;;;;;4952572;28;45684;-75
2022/05/14 03:58:38;;;;;;;;;9.33;5.00;;;;;;;;4956431;28;45427;-75
2022/05/14 04:01:04;;;;;;;;;8.00;8.00;;;;;;;;4955686;28;45491;-75
2022/05/14 04:03:31;;;;;;;;;7.33;7.00;;;;;;;;4955086;28;46160;-76
2022/05/14 04:05:56;;;;;;;;;6.67;6.33;;;;;;;;4958050;28;45734;-76
2022/05/14 04:08:21;;;;;;;;;10.33;8.33;;;;;;;;4958130;28;45539;-77
2022/05/14 04:10:47;;;;;;;;;6.33;5.33;;;;;;;;4957091;28;45658;-77
2022/05/14 04:13:12;;;;;;;;;7.00;7.00;;;;;;;;4957193;28;45380;-77
2022/05/14 04:15:38;;;;;;;;;6.00;5.67;;;;;;;;4953434;28;45807;-77
2022/05/14 04:18:04;;;;;;;;;7.33;6.33;;;;;;;;4958053;28;45876;-77
2022/05/14 04:20:29;;;;;;;;;9.33;7.67;;;;;;;;4956947;28;45627;-77
2022/05/14 04:22:56;;;;;;;;;8.33;7.33;;;;;;;;4937665;28;45480;-78
2022/05/14 04:25:22;;;;;;;;;15.00;6.67;;;;;;;;4953832;28;46324;-78
2022/05/14 04:27:48;;;;;;;;;9.00;6.33;;;;;;;;4962677;28;45673;-78
2022/05/14 04:30:14;;;;;;;;;7.67;4.67;;;;;;;;4956939;28;45720;-77
2022/05/14 04:32:39;;;;;;;;;8.00;4.67;;;;;;;;4959426;28;45375;-77
2022/05/14 04:35:05;;;;;;;;;7.67;7.33;;;;;;;;4957869;28;45493;-73
2022/05/14 04:37:30;;;;;;;;;5.67;5.67;;;;;;;;4954852;28;45714;-76
2022/05/14 04:39:56;;;;;;;;;6.33;5.67;;;;;;;;4958821;28;45363;-77
2022/05/14 04:42:21;;;;;;;;;7.67;7.67;;;;;;;;4956095;28;45495;-78
2022/05/14 04:44:46;;;;;;;;;6.00;5.00;;;;;;;;4960248;28;45490;-77
2022/05/14 04:47:12;;;;;;;;;4.00;4.00;;;;;;;;4965411;28;45380;-78
2022/05/14 04:49:38;;;;;;;;;7.67;4.67;;;;;;;;4973606;28;45302;-77
2022/05/14 04:52:04;;;;;;;;;7.00;5.00;;;;;;;;4962674;28;45382;-79
2022/05/14 04:54:29;;;;;;;;;6.00;4.67;;;;;;;;4967427;28;45723;-79
2022/05/14 04:56:54;;;;;;;;;8.33;4.00;;;;;;;;4962483;28;45645;-80
2022/05/14 04:59:20;;;;;;;;;6.67;4.33;;;;;;;;4969211;28;45467;-77
2022/05/14 05:04:33;;;;;;;;;5.67;4.00;;;;;;;;4958706;28;45945;-78
2022/05/14 05:06:58;;;;;;;;;6.67;4.00;;;;;;;;4959884;28;45941;-79
2022/05/14 05:09:24;;;;;;;;;4.33;4.33;;;;;;;;4959572;28;46228;-74
2022/05/14 05:11:50;;;;;;;;;5.00;5.00;;;;;;;;4955865;28;45498;-77
2022/05/14 05:14:16;;;;;;;;;8.00;5.00;;;;;;;;4957536;28;46941;-78
2022/05/14 05:16:41;;;;;;;;;9.00;6.00;;;;;;;;4965989;28;46281;-79
2022/05/14 05:19:06;;;;;;;;;7.67;5.67;;;;;;;;4954204;28;45950;-77
2022/05/14 05:21:31;;;;;;;;;6.33;6.00;;;;;;;;4964866;28;45931;-77
2022/05/14 05:23:57;;;;;;;;;28.00;23.67;;;;;;;;4964377;28;45817;-79
2022/05/14 05:26:22;;;;;;;;;7.33;6.33;;;;;;;;4959624;28;45672;-77
2022/05/14 05:28:47;;;;;;;;;8.33;7.33;;;;;;;;4952566;28;45939;-77
2022/05/14 05:31:12;;;;;;;;;8.33;7.00;;;;;;;;4960059;28;45509;-78
2022/05/14 05:33:38;;;;;;;;;8.33;6.00;;;;;;;;4956549;28;46167;-80
2022/05/14 05:36:03;;;;;;;;;21.33;20.33;;;;;;;;4957698;28;45500;-78
2022/05/14 05:38:28;;;;;;;;;11.67;11.00;;;;;;;;4958678;28;45900;-78
2022/05/14 05:40:54;;;;;;;;;5.33;5.33;;;;;;;;4966425;28;45780;-79
2022/05/14 05:43:20;;;;;;;;;8.67;5.67;;;;;;;;4955186;28;46656;-77
2022/05/14 05:45:47;;;;;;;;;5.00;5.00;;;;;;;;4957556;28;45927;-79
2022/05/14 05:48:12;;;;;;;;;3.33;3.00;;;;;;;;4954963;28;45774;-79
2022/05/14 05:50:38;;;;;;;;;6.67;5.33;;;;;;;;4940328;28;45857;-76
2022/05/14 05:53:04;;;;;;;;;4.33;4.00;;;;;;;;4969307;28;45724;-77
2022/05/14 05:58:17;;;;;;;;;6.25;3.00;;;;;;;;4960036;28;47356;-78
2022/05/14 06:00:42;;;;;;;;;6.75;4.25;;;;;;;;4968192;28;45811;-77
2022/05/14 06:03:07;;;;;;;;;6.25;3.50;;;;;;;;4961203;28;45464;-78
2022/05/14 06:05:33;;;;;;;;;2.75;2.75;;;;;;;;4953212;28;45567;-77
2022/05/14 06:07:58;;;;;;;;;4.00;3.00;;;;;;;;4953051;28;45518;-77
2022/05/14 06:10:24;;;;;;;;;3.00;3.00;;;;;;;;4966069;28;45456;-78
2022/05/14 06:12:49;;;;;;;;;3.00;1.00;;;;;;;;4943779;28;45948;-77
2022/05/14 06:15:16;;;;;;;;;3.00;2.25;;;;;;;;4942640;28;45471;-76
2022/05/14 06:17:41;;;;;;;;;3.50;1.50;;;;;;;;4942878;28;45566;-78
2022/05/14 06:20:08;;;;;;;;;1.50;1.50;;;;;;;;4945296;28;45808;-79
2022/05/14 06:22:34;;;;;;;;;2.00;2.00;;;;;;;;4925753;28;46132;-79
2022/05/14 06:24:59;;;;;;;;;2.75;2.00;;;;;;;;4950882;28;45783;-76
2022/05/14 06:27:25;;;;;;;;;3.50;1.50;;;;;;;;4939013;28;45802;-79
2022/05/14 06:29:50;;;;;;;;;3.50;2.00;;;;;;;;4950619;28;45770;-79
2022/05/14 06:32:15;;;;;;;;;3.50;2.00;;;;;;;;4952213;28;45742;-78
2022/05/14 06:34:40;;;;;;;;;4.50;2.00;;;;;;;;4952750;28;45813;-79
2022/05/14 06:37:06;;;;;;;;;4.50;2.75;;;;;;;;4923013;28;45846;-78
2022/05/14 06:39:31;;;;;;;;;1.00;1.00;;;;;;;;4940837;28;45879;-76
2022/05/14 06:41:57;;;;;;;;;1.25;1.25;;;;;;;;4951899;28;46100;-79
2022/05/14 06:44:22;;;;;;;;;1.00;1.00;;;;;;;;4952127;28;45446;-77
2022/05/14 06:46:48;;;;;;;;;3.25;1.00;;;;;;;;4952894;28;45903;-79
2022/05/14 06:49:13;;;;;;;;;2.50;1.25;;;;;;;;4953508;28;46017;-77
2022/05/14 06:51:39;;;;;;;;;3.00;1.75;;;;;;;;4952532;28;46285;-79
2022/05/14 06:54:08;;;;;;;;;2.00;2.00;;;;;;;;4955642;28;45469;-77
2022/05/14 06:56:36;;;;;;;;;1.00;1.00;;;;;;;;4955634;28;45467;-82
2022/05/14 06:59:01;;;;;;;;;2.00;2.00;;;;;;;;4955997;28;45431;-80
2022/05/14 07:01:27;;;;;;;;;3.25;2.25;;;;;;;;4934970;28;47064;-78
2022/05/14 07:06:43;;;;;;;;;1.25;1.25;;;;;;;;4950150;28;45515;-75
2022/05/14 07:09:12;;;;;;;;;0.75;0.75;;;;;;;;4927727;28;45557;-81
2022/05/14 07:11:40;;;;;;;;;2.00;2.00;;;;;;;;4951426;28;46636;-79
2022/05/14 07:14:05;;;;;;;;;2.00;1.00;;;;;;;;4956399;28;45378;-77
2022/05/14 07:16:31;;;;;;;;;3.50;2.00;;;;;;;;4956013;28;45506;-78
2022/05/14 07:18:56;;;;;;;;;1.75;1.00;;;;;;;;4956404;28;45408;-79
2022/05/14 07:21:22;;;;;;;;;3.25;2.00;;;;;;;;4954855;28;45561;-77
2022/05/14 07:23:47;;;;;;;;;2.00;2.00;;;;;;;;4929627;28;45455;-79
2022/05/14 07:26:12;;;;;;;;;2.00;2.00;;;;;;;;4950015;28;45356;-78
2022/05/14 07:28:38;;;;;;;;;3.00;2.00;;;;;;;;4951389;28;45737;-78
2022/05/14 07:31:03;;;;;;;;;3.00;2.00;;;;;;;;4962721;28;45864;-76
2022/05/14 07:33:29;;;;;;;;;4.00;2.25;;;;;;;;4934526;28;45867;-77
2022/05/14 07:35:57;;;;;;;;;3.67;2.33;;;;;;;;4960914;28;45661;-76
2022/05/14 07:38:23;;;;;;;;;3.75;2.25;;;;;;;;4942074;28;45708;-76
2022/05/14 07:40:48;;;;;;;;;3.25;3.25;;;;;;;;4948130;28;46182;-76
2022/05/14 07:43:16;;;;;;;;;4.25;2.50;;;;;;;;4936209;28;45805;-75
2022/05/14 07:45:42;;;;;;;;;3.25;3.25;;;;;;;;4961381;28;45372;-76
2022/05/14 07:48:12;;;;;;;;;2.25;2.00;;;;;;;;4953897;28;45701;-76
2022/05/14 07:50:39;;;;;;;;;3.00;3.00;;;;;;;;4956413;28;45704;-76
2022/05/14 07:53:05;;;;;;;;;3.00;3.00;;;;;;;;4956599;28;45361;-78
2022/05/14 07:55:30;;;;;;;;;3.50;3.50;;;;;;;;4959470;28;45660;-76
2022/05/14 07:57:55;;;;;;;;;12.67;12.67;;;;;;;;4948013;28;45578;-74
2022/05/14 08:00:21;;;;;;;;;10.67;10.67;;;;;;;;4959707;28;46068;-75
2022/05/14 08:02:46;;;;;;;;;6.50;6.50;;;;;;;;4959698;28;45793;-75
2022/05/14 08:05:13;;;;;;;;;4.00;2.00;;;;;;;;4963846;28;45518;-75
2022/05/14 08:07:38;;;;;;;;;2.75;2.75;;;;;;;;4951875;28;45474;-75
2022/05/14 08:10:04;;;;;;;;;2.75;2.75;;;;;;;;4962638;28;46042;-76
2022/05/14 08:12:34;;;;;;;;;1.50;1.50;;;;;;;;4958170;28;45445;-74
2022/05/14 08:14:59;;;;;;;;;3.25;2.00;;;;;;;;4959221;28;45870;-74
2022/05/14 08:17:26;;;;;;;;;2.00;2.00;;;;;;;;4962696;28;45461;-72
2022/05/14 08:19:51;;;;;;;;;2.00;1.25;;;;;;;;4956809;28;45773;-75
2022/05/14 08:25:01;;;;;;;;;3.00;2.25;;;;;;;;4945139;28;45658;-78
2022/05/14 08:27:26;;;;;;;;;4.00;2.50;;;;;;;;4959418;28;46167;-76
2022/05/14 08:29:52;;;;;;;;;2.75;2.75;;;;;;;;4955099;28;46029;-79
2022/05/14 08:32:21;;;;;;;;;3.00;3.00;;;;;;;;4944182;28;45810;-76
2022/05/14 08:34:48;;;;;;;;;3.00;3.00;;;;;;;;4941484;28;45906;-78
2022/05/14 08:37:14;;;;;;;;;2.00;2.00;;;;;;;;4927115;28;45953;-76
2022/05/14 08:39:39;;;;;;;;;3.00;2.25;;;;;;;;4922876;28;45738;-77
2022/05/14 08:42:06;;;;;;;;;2.00;2.00;;;;;;;;4940807;28;45612;-77
2022/05/14 08:44:33;;;;;;;;;1.75;1.75;;;;;;;;4943419;28;45818;-79
2022/05/14 08:47:04;;;;;;;;;25.33;25.33;;;;;;;;4941415;28;45333;-80
2022/05/14 08:49:29;;;;;;;;;4.00;4.00;;;;;;;;4944010;28;46029;-78
2022/05/14 08:51:56;;;;;;;;;4.00;2.00;;;;;;;;4940130;28;45726;-78
2022/05/14 08:54:22;;;;;;;;;3.00;2.67;;;;;;;;4931010;28;45628;-77
2022/05/14 08:56:52;;;;;;;;;2.75;2.75;;;;;;;;4923188;28;46798;-80
2022/05/14 08:59:26;;;;;;;;;4.00;2.50;;;;;;;;4927888;28;48585;-78
2022/05/14 09:01:52;;;;;;;;;2.67;2.67;;;;;;;;4941006;28;45842;-78
2022/05/14 09:04:17;;;;;;;;;2.25;2.25;;;;;;;;4946640;28;45536;-76
2022/05/14 09:06:43;;;;;;;;;2.00;2.00;;;;;;;;4943946;28;45765;-79
2022/05/14 09:09:09;;;;;;;;;2.25;1.50;;;;;;;;4947014;28;45809;-77
2022/05/14 09:11:42;;;;;;;;;0.00;0.00;;;;;;;;4945190;28;45846;-76
2022/05/14 09:14:23;;;;;;;;;1.50;1.50;;;;;;;;4940668;28;45663;-78
2022/05/14 09:16:50;;;;;;;;;2.00;2.00;;;;;;;;4945691;28;46019;-77
2022/05/14 09:19:18;;;;;;;;;2.50;1.00;;;;;;;;4943185;28;46145;-79
2022/05/14 09:21:51;;;;;;;;;6.33;4.00;;;;;;;;4946986;28;45661;-79
2022/05/14 09:24:25;;;;;;;;;3.33;3.33;;;;;;;;4946162;28;45571;-80
2022/05/14 09:26:52;;;;;;;;;1.00;1.00;;;;;;;;4941282;28;46436;-77
2022/05/14 09:29:27;;;;;;;;;3.00;3.00;;;;;;;;4947818;28;45644;-79
2022/05/14 09:32:03;;;;;;;;;4.75;2.75;;;;;;;;4949102;28;45379;-79
2022/05/14 09:34:30;;;;;;;;;1.00;1.00;;;;;;;;4926414;28;45782;-77
2022/05/14 09:37:06;;;;;;;;;1.00;1.00;;;;;;;;4940753;28;45618;-77
2022/05/14 09:39:32;;;;;;;;;2.67;2.00;;;;;;;;4947235;28;47058;-78
2022/05/14 09:42:00;;;;;;;;;2.25;1.00;;;;;;;;4939348;28;45903;-76
2022/05/14 09:44:26;;;;;;;;;0.67;0.33;;;;;;;;4936104;28;45540;-75
2022/05/14 09:46:52;;;;;;;;;1.00;1.00;;;;;;;;4940867;28;45920;-77
2022/05/14 09:49:25;;;;;;;;;0.75;0.00;;;;;;;;4939523;28;45812;-76
2022/05/14 09:51:52;;;;;;;;;1.00;1.00;;;;;;;;4940319;28;45683;-75
2022/05/14 09:54:23;;;;;;;;;0.25;0.25;;;;;;;;4929217;28;46619;-74
2022/05/14 09:57:03;;;;;;;;;3.00;3.00;;;;;;;;4948202;28;45811;-76
2022/05/14 09:59:38;;;;;;;;;1.75;1.75;;;;;;;;4944551;28;46222;-75
2022/05/14 10:02:06;;;;;;;;;14.00;11.33;;;;;;;;4947989;28;46085;-73
2022/05/14 10:04:50;;;;;;;;;14.33;12.00;;;;;;;;4947548;28;46092;-75
2022/05/14 10:07:18;;;;;;;;;5.00;3.67;;;;;;;;4943393;28;45556;-71
2022/05/14 10:09:55;;;;;;;;;5.33;3.67;;;;;;;;4931715;28;46087;-74
2022/05/14 10:12:28;;;;;;;;;4.00;3.00;;;;;;;;4948437;28;45435;-72
2022/05/14 10:15:01;;;;;;;;;2.00;1.00;;;;;;;;4941502;28;45778;-74
2022/05/14 10:17:30;;;;;;;;;2.00;2.00;;;;;;;;4936782;28;45472;-76
2022/05/14 10:20:13;;;;;;;;;1.00;1.00;;;;;;;;4946934;28;45948;-78
2022/05/14 10:28:36;;;;;;;;;4.67;3.67;;;;;;;;4967095;28;45803;-77
2022/05/14 10:31:09;;;;;;;;;2.33;2.33;;;;;;;;4950892;28;45087;-80
2022/05/14 10:33:35;;;;;;;;;1.00;1.00;;;;;;;;4944004;28;45304;-77
2022/05/14 10:36:07;;;;;;;;;3.00;3.00;;;;;;;;4951288;28;45728;-77
2022/05/14 10:38:45;;;;;;;;;6.67;6.00;;;;;;;;4949749;28;45630;-75
2022/05/14 10:41:11;;;;;;;;;4.00;3.33;;;;;;;;4947134;28;45998;-76
2022/05/14 10:43:40;;;;;;;;;2.00;2.00;;;;;;;;4951761;28;45525;-77
2022/05/14 10:46:10;;;;;;;;;3.67;3.67;;;;;;;;4942492;28;45627;-75
2022/05/14 10:48:39;;;;;;;;;5.67;5.67;;;;;;;;4934801;28;47139;-75
2022/05/14 10:51:09;;;;;;;;;2.00;2.00;;;;;;;;4949503;28;46733;-75
2022/05/14 10:53:38;;;;;;;;;2.67;2.00;;;;;;;;4944405;28;45657;-76
2022/05/14 10:56:14;;;;;;;;;6.67;6.67;;;;;;;;4950451;28;45904;-77
2022/05/14 10:58:53;;;;;;;;;4.00;3.00;;;;;;;;4945547;28;45417;-74
2022/05/14 11:01:25;;;;;;;;;2.00;2.00;;;;;;;;4943706;28;45819;-76
2022/05/14 11:03:54;;;;;;;;;2.00;2.00;;;;;;;;4944697;28;45591;-75
2022/05/14 11:06:26;;;;;;;;;1.67;1.67;;;;;;;;4941375;28;45871;-75
2022/05/14 11:08:52;;;;;;;;;2.00;1.00;;;;;;;;4938080;28;45833;-76
2022/05/14 11:11:17;;;;;;;;;4.00;2.00;;;;;;;;4944006;28;46432;-76
2022/05/14 11:13:54;;;;;;;;;4.25;3.00;;;;;;;;4927836;28;46256;-74
2022/05/14 11:16:19;;;;;;;;;1.75;1.75;;;;;;;;4943201;28;45935;-76
2022/05/14 11:18:55;;;;;;;;;8.67;7.67;;;;;;;;4945124;28;45740;-75
2022/05/14 11:21:32;;;;;;;;;2.00;2.00;;;;;;;;4930654;28;47317;-75
2022/05/14 11:23:59;;;;;;;;;2.50;2.50;;;;;;;;4943316;28;45481;-74
2022/05/14 11:26:25;;;;;;;;;4.00;4.00;;;;;;;;4943018;28;46201;-77
2022/05/14 11:28:58;;;;;;;;;2.00;2.00;;;;;;;;4929894;28;45382;-77
2022/05/14 11:31:26;;;;;;;;;3.25;3.25;;;;;;;;4945106;28;46772;-77
2022/05/14 11:33:53;;;;;;;;;1.00;1.00;;;;;;;;4947627;28;45769;-78
2022/05/14 11:36:20;;;;;;;;;19.50;19.50;;;;;;;;4953439;28;45537;-75
2022/05/14 11:38:51;;;;;;;;;8.00;8.00;;;;;;;;4947942;28;45715;-74
2022/05/14 11:41:30;;;;;;;;;3.00;3.00;;;;;;;;4945129;28;45731;-74
2022/05/14 11:43:56;;;;;;;;;9.33;7.67;;;;;;;;4951293;28;45330;-74
2022/05/14 11:46:40;;;;;;;;;2.25;2.25;;;;;;;;4947677;28;45757;-74
2022/05/14 11:49:27;;;;;;;;;4.00;2.00;;;;;;;;4952423;28;45379;-75
2022/05/14 11:52:11;;;;;;;;;5.75;4.00;;;;;;;;4949437;28;45825;-75
2022/05/14 11:55:15;;;;;;;;;3.00;3.00;;;;;;;;4953140;28;45631;-73
2022/05/14 11:57:52;;;;;;;;;2.00;2.00;;;;;;;;4849146;29;45771;-76
2022/05/14 12:00:22;;;;;;;;;3.75;3.00;;;;;;;;4850644;29;45912;-75
2022/05/14 12:02:50;;;;;;;;;1.67;1.67;;;;;;;;4911667;28;45775;-75
2022/05/14 12:05:22;;;;;;;;;5.75;4.50;;;;;;;;4942871;28;45456;-74
2022/05/14 12:07:47;;;;;;;;;5.00;5.00;;;;;;;;4944837;28;45409;-73
2022/05/14 12:10:23;;;;;;;;;3.67;3.67;;;;;;;;4944198;28;45718;-75
2022/05/14 12:12:57;;;;;;;;;5.00;4.00;;;;;;;;4948348;28;45627;-75
2022/05/14 12:15:24;;;;;;;;;3.33;3.33;;;;;;;;4935867;28;45795;-75
2022/05/14 12:17:51;;;;;;;;;8.00;3.00;;;;;;;;4934452;28;45752;-75
2022/05/14 12:20:22;;;;;;;;;5.00;2.33;;;;;;;;4938796;28;45331;-76
2022/05/14 12:22:54;;;;;;;;;4.00;3.00;;;;;;;;4935328;28;45929;-74
2022/05/14 12:25:20;;;;;;;;;3.00;2.67;;;;;;;;4935538;28;45829;-75
2022/05/14 12:27:46;;;;;;;;;2.67;2.67;;;;;;;;4936118;28;45780;-76
2022/05/14 12:30:12;;;;;;;;;7.00;3.33;;;;;;;;4969665;28;45696;-76
2022/05/14 12:35:28;;;;;;;;;3.33;3.33;;;;;;;;4962666;28;45404;-76
2022/05/14 12:37:55;;;;;;;;;3.33;3.33;;;;;;;;4946781;28;45386;-74
2022/05/14 12:40:23;;;;;;;;;2.67;2.33;;;;;;;;4955032;28;45551;-77
2022/05/14 12:42:50;;;;;;;;;3.33;3.33;;;;;;;;4954041;28;45706;-76
2022/05/14 12:45:15;;;;;;;;;4.00;4.00;;;;;;;;4953790;28;45792;-77
2022/05/14 12:47:41;;;;;;;;;5.00;4.00;;;;;;;;4947536;28;45821;-77
2022/05/14 12:50:20;;;;;;;;;7.33;4.00;;;;;;;;4944107;28;45780;-76
2022/05/14 12:52:53;;;;;;;;;4.67;4.67;;;;;;;;4934812;28;45629;-79
2022/05/14 12:55:19;;;;;;;;;7.00;6.00;;;;;;;;4940162;28;45755;-77
2022/05/14 12:57:46;;;;;;;;;6.00;5.00;;;;;;;;4941225;28;45460;-77
2022/05/14 13:00:13;;;;;;;;;5.00;5.00;;;;;;;;4948981;28;45734;-78
2022/05/14 13:02:44;;;;;;;;;4.33;4.33;;;;;;;;4942784;28;46718;-77
2022/05/14 13:05:16;;;;;;;;;8.00;4.00;;;;;;;;4942053;28;45533;-76
2022/05/14 13:07:48;;;;;;;;;6.33;4.00;;;;;;;;4947995;28;45872;-77
2022/05/14 13:10:16;;;;;;;;;4.00;4.00;;;;;;;;4948897;28;47141;-76
2022/05/14 13:12:47;;;;;;;;;4.67;4.67;;;;;;;;4940058;28;46077;-76
2022/05/14 13:15:12;;;;;;;;;4.33;4.33;;;;;;;;4940642;28;45734;-76
2022/05/14 13:17:39;;;;;;;;;4.00;3.67;;;;;;;;4939149;28;45396;-76
2022/05/14 13:20:15;;;;;;;;;4.00;3.67;;;;;;;;4943201;28;45496;-76
2022/05/14 13:22:41;;;;;;;;;2.67;2.67;;;;;;;;4937503;28;45747;-76
2022/05/14 13:25:25;;;;;;;;;4.00;4.00;;;;;;;;4937924;28;45309;-76
2022/05/14 13:27:50;;;;;;;;;5.00;5.00;;;;;;;;4936861;28;45891;-75
2022/05/14 13:30:17;;;;;;;;;8.33;5.67;;;;;;;;4938864;28;45412;-77
2022/05/14 13:32:43;;;;;;;;;9.00;8.67;;;;;;;;4933059;28;45644;-78
2022/05/14 13:37:55;;;;;;;;;4.67;4.67;;;;;;;;4937406;28;46429;-75
2022/05/14 13:40:22;;;;;;;;;7.33;4.33;;;;;;;;4953531;28;45358;-75
2022/05/14 13:42:47;;;;;;;;;5.00;5.00;;;;;;;;4934994;28;45469;-79
2022/05/14 13:45:23;;;;;;;;;4.67;4.67;;;;;;;;4950577;28;45873;-78
2022/05/14 13:47:49;;;;;;;;;3.33;3.00;;;;;;;;4957277;28;45321;-83
2022/05/14 13:50:21;;;;;;;;;7.67;4.00;;;;;;;;4965208;28;44949;-79
2022/05/14 13:52:51;;;;;;;;;3.00;3.00;;;;;;;;4955478;28;47881;-82
2022/05/14 13:55:27;;;;;;;;;5.33;4.00;;;;;;;;4952815;28;45870;-79
2022/05/14 13:57:54;;;;;;;;;5.00;3.33;;;;;;;;4945681;28;45845;-77
2022/05/14 14:00:22;;;;;;;;;5.00;4.33;;;;;;;;4950220;28;46094;-78
2022/05/14 14:02:58;;;;;;;;;5.00;4.00;;;;;;;;4946981;28;47160;-79
2022/05/14 14:05:24;;;;;;;;;4.67;4.00;;;;;;;;4947691;28;45598;-75
2022/05/14 14:07:49;;;;;;;;;5.00;4.33;;;;;;;;4949488;28;45865;-77
2022/05/14 14:10:19;;;;;;;;;5.33;4.00;;;;;;;;4945211;28;45694;-74
2022/05/14 14:12:45;;;;;;;;;7.33;6.67;;;;;;;;4942667;28;45500;-75
2022/05/14 14:15:15;;;;;;;;;4.00;4.00;;;;;;;;4945721;28;45769;-76
2022/05/14 14:17:40;;;;;;;;;4.00;4.00;;;;;;;;4951658;28;45701;-77
2022/05/14 14:20:06;;;;;;;;;4.33;4.33;;;;;;;;4947798;28;45920;-75
2022/05/14 14:22:32;;;;;;;;;3.00;3.00;;;;;;;;4934515;28;46095;-81
2022/05/14 14:24:58;;;;;;;;;5.00;5.00;;;;;;;;4939966;28;45487;-80
2022/05/14 14:27:25;;;;;;;;;4.67;4.67;;;;;;;;4949054;28;45500;-78
2022/05/14 14:29:51;;;;;;;;;4.33;4.33;;;;;;;;4948015;28;45708;-79
2022/05/14 14:32:17;;;;;;;;;4.00;4.00;;;;;;;;4928425;28;48065;-82
2022/05/14 14:34:42;;;;;;;;;3.33;3.33;;;;;;;;4945096;28;45845;-81
2022/05/14 14:37:07;;;;;;;;;5.00;4.00;;;;;;;;4950092;28;45590;-79
2022/05/14 14:39:33;;;;;;;;;5.00;3.33;;;;;;;;4950268;28;45806;-78
2022/05/14 14:41:58;;;;;;;;;3.67;3.67;;;;;;;;4948368;28;45505;-79
2022/05/14 14:44:23;;;;;;;;;4.33;4.33;;;;;;;;4950044;28;45940;-79
2022/05/14 14:46:50;;;;;;;;;3.00;2.00;;;;;;;;4951985;28;45741;-77
2022/05/14 14:49:16;;;;;;;;;3.67;3.67;;;;;;;;4943719;28;45707;-79
2022/05/14 14:51:42;;;;;;;;;5.00;4.00;;;;;;;;4949735;28;45917;-79
2022/05/14 14:54:07;;;;;;;;;5.00;4.00;;;;;;;;4942861;28;45744;-77
2022/05/14 14:56:32;;;;;;;;;5.67;5.00;;;;;;;;4943319;28;45427;-79
2022/05/14 14:58:58;;;;;;;;;5.33;4.67;;;;;;;;4948466;28;45501;-79
2022/05/14 15:01:34;;;;;;;;;33.33;24.67;;;;;;;;4947114;28;46066;-77
2022/05/14 15:04:09;;;;;;;;;5.33;4.33;;;;;;;;4945261;28;45820;-77
2022/05/14 15:06:38;;;;;;;;;4.67;4.67;;;;;;;;4934553;28;45801;-79
2022/05/14 15:09:03;;;;;;;;;5.33;5.33;;;;;;;;4946725;28;45661;-76
2022/05/14 15:11:28;;;;;;;;;5.00;4.00;;;;;;;;4946666;28;45901;-75
2022/05/14 15:13:57;;;;;;;;;4.00;4.00;;;;;;;;4934567;28;45752;-79